createdAt,value
2023-05-04T00:00:58.080Z,63.68
2023-05-04T00:01:58.245Z,63.78
2023-05-04T00:02:58.507Z,63.98
2023-05-04T00:03:58.826Z,63.78
2023-05-04T00:04:58.878Z,63.17
2023-05-04T00:05:58.946Z,63.98
2023-05-04T00:06:59.131Z,64.50
2023-05-04T00:07:59.301Z,64.62
2023-05-04T00:08:59.470Z,64.83
2023-05-04T00:09:59.643Z,65.14
2023-05-04T00:10:59.811Z,64.94
2023-05-04T00:12:00.001Z,64.62
2023-05-04T00:13:00.196Z,64.42
2023-05-04T00:14:00.324Z,64.12
2023-05-04T00:15:00.514Z,65.04
2023-05-04T00:16:00.747Z,64.73
2023-05-04T00:17:00.837Z,64.73
2023-05-04T00:18:01.066Z,64.22
2023-05-04T00:19:01.210Z,64.94
2023-05-04T00:20:01.385Z,64.62
2023-05-04T00:21:01.557Z,65.04
2023-05-04T00:22:01.731Z,64.83
2023-05-04T00:23:01.911Z,64.83
2023-05-04T00:24:02.075Z,64.94
2023-05-04T00:25:02.248Z,65.14
2023-05-04T00:26:02.444Z,65.14
2023-05-04T00:27:02.692Z,64.12
2023-05-04T00:28:02.782Z,65.24
2023-05-04T00:29:02.948Z,64.73
2023-05-04T00:30:03.413Z,64.83
2023-05-04T00:31:03.320Z,64.62
2023-05-04T00:32:03.560Z,64.73
2023-05-04T00:33:03.701Z,63.91
2023-05-04T00:34:03.816Z,64.53
2023-05-04T00:35:03.973Z,64.01
2023-05-04T00:36:04.153Z,64.12
2023-05-04T00:37:04.348Z,64.62
2023-05-04T00:38:04.506Z,64.22
2023-05-04T00:39:04.674Z,64.32
2023-05-04T00:40:05.119Z,64.01
2023-05-04T00:41:05.052Z,64.83
2023-05-04T00:42:05.224Z,64.22
2023-05-04T00:43:05.420Z,64.53
2023-05-04T00:44:05.570Z,64.32
2023-05-04T00:45:05.741Z,64.73
2023-05-04T00:46:05.925Z,64.94
2023-05-04T00:47:06.183Z,65.34
2023-05-04T00:48:06.315Z,65.55
2023-05-04T00:49:06.450Z,65.24
2023-05-04T00:50:06.906Z,65.45
2023-05-04T00:51:06.879Z,65.24
2023-05-04T00:52:06.984Z,65.75
2023-05-04T00:53:07.148Z,65.24
2023-05-04T00:54:07.308Z,65.24
2023-05-04T00:55:07.487Z,65.45
2023-05-04T00:56:07.693Z,65.55
2023-05-04T00:57:07.834Z,65.96
2023-05-04T00:58:07.991Z,65.65
2023-05-04T00:59:08.173Z,65.96
2023-05-04T01:00:08.355Z,65.86
2023-05-04T01:01:08.530Z,66.19
2023-05-04T01:02:08.687Z,66.30
2023-05-04T01:03:08.957Z,66.60
2023-05-04T01:04:09.116Z,66.50
2023-05-04T01:05:09.246Z,66.30
2023-05-04T01:06:09.427Z,66.91
2023-05-04T01:07:09.601Z,66.71
2023-05-04T01:08:09.770Z,66.40
2023-05-04T01:09:09.955Z,66.19
2023-05-04T01:10:10.135Z,66.19
2023-05-04T01:11:10.318Z,66.71
2023-05-04T01:12:10.464Z,67.02
2023-05-04T01:13:10.743Z,66.30
2023-05-04T01:14:10.804Z,66.50
2023-05-04T01:15:10.984Z,66.40
2023-05-04T01:16:11.181Z,66.30
2023-05-04T01:17:11.624Z,66.09
2023-05-04T01:18:11.559Z,66.30
2023-05-04T01:19:11.714Z,65.89
2023-05-04T01:20:11.890Z,66.19
2023-05-04T01:21:12.063Z,65.89
2023-05-04T01:22:12.217Z,66.19
2023-05-04T01:23:12.415Z,65.68
2023-05-04T01:24:12.593Z,66.19
2023-05-04T01:25:12.772Z,66.43
2023-05-04T01:26:12.950Z,66.53
2023-05-04T01:27:13.128Z,66.22
2023-05-04T01:28:13.304Z,66.74
2023-05-04T01:29:13.482Z,66.84
2023-05-04T01:30:13.669Z,66.33
2023-05-04T01:31:13.852Z,66.22
2023-05-04T01:32:13.999Z,65.71
2023-05-04T01:33:14.177Z,65.81
2023-05-04T01:34:14.356Z,65.41
2023-05-04T01:35:14.520Z,66.22
2023-05-04T01:36:14.691Z,66.43
2023-05-04T01:37:14.880Z,65.92
2023-05-04T01:38:15.030Z,65.61
2023-05-04T01:39:15.210Z,66.33
2023-05-04T01:40:15.379Z,66.02
2023-05-04T01:41:15.535Z,66.43
2023-05-04T01:42:15.727Z,66.12
2023-05-04T01:43:15.887Z,66.22
2023-05-04T01:44:16.052Z,66.22
2023-05-04T01:45:16.255Z,66.74
2023-05-04T01:46:16.463Z,66.84
2023-05-04T01:47:16.596Z,66.53
2023-05-04T01:48:16.740Z,66.53
2023-05-04T01:49:16.929Z,66.33
2023-05-04T01:50:17.108Z,66.74
2023-05-04T01:51:17.276Z,66.02
2023-05-04T01:52:17.468Z,65.92
2023-05-04T01:53:17.616Z,66.53
2023-05-04T01:54:17.837Z,66.67
2023-05-04T01:55:17.984Z,66.22
2023-05-04T01:56:18.139Z,66.05
2023-05-04T01:57:18.284Z,66.46
2023-05-04T01:58:18.454Z,66.25
2023-05-04T01:59:18.643Z,67.08
2023-05-04T02:00:18.775Z,66.77
2023-05-04T02:01:19.027Z,66.05
2023-05-04T02:02:19.134Z,66.87
2023-05-04T02:03:19.353Z,66.67
2023-05-04T02:04:19.453Z,66.87
2023-05-04T02:05:19.634Z,66.77
2023-05-04T02:06:19.802Z,67.38
2023-05-04T02:07:19.952Z,67.59
2023-05-04T02:08:20.147Z,66.97
2023-05-04T02:09:20.301Z,67.18
2023-05-04T02:10:20.492Z,68.00
2023-05-04T02:11:20.676Z,66.87
2023-05-04T02:12:20.829Z,68.41
2023-05-04T02:13:21.013Z,67.28
2023-05-04T02:14:21.157Z,67.28
2023-05-04T02:15:21.329Z,67.79
2023-05-04T02:16:21.617Z,66.97
2023-05-04T02:17:21.650Z,67.38
2023-05-04T02:18:21.820Z,66.25
2023-05-04T02:19:22.023Z,66.36
2023-05-04T02:20:22.196Z,66.67
2023-05-04T02:21:22.348Z,67.38
2023-05-04T02:22:22.508Z,68.30
2023-05-04T02:23:22.692Z,67.28
2023-05-04T02:24:22.871Z,67.79
2023-05-04T02:25:23.032Z,68.62
2023-05-04T02:26:23.195Z,68.92
2023-05-04T02:27:23.366Z,68.72
2023-05-04T02:28:23.531Z,68.10
2023-05-04T02:29:23.736Z,68.00
2023-05-04T02:30:23.905Z,68.21
2023-05-04T02:31:24.121Z,68.24
2023-05-04T02:32:24.309Z,68.65
2023-05-04T02:33:24.435Z,68.54
2023-05-04T02:34:24.608Z,68.44
2023-05-04T02:35:24.771Z,68.96
2023-05-04T02:36:24.947Z,68.24
2023-05-04T02:37:25.115Z,68.03
2023-05-04T02:38:25.316Z,67.52
2023-05-04T02:39:25.505Z,67.21
2023-05-04T02:40:25.630Z,67.72
2023-05-04T02:41:25.816Z,68.13
2023-05-04T02:42:25.974Z,67.62
2023-05-04T02:43:26.163Z,67.11
2023-05-04T02:44:26.328Z,67.83
2023-05-04T02:45:26.595Z,68.44
2023-05-04T02:46:26.707Z,67.52
2023-05-04T02:47:26.910Z,68.85
2023-05-04T02:48:27.073Z,68.85
2023-05-04T02:49:27.250Z,68.54
2023-05-04T02:50:27.415Z,68.13
2023-05-04T02:51:27.596Z,68.34
2023-05-04T02:52:27.789Z,68.34
2023-05-04T02:53:27.951Z,67.21
2023-05-04T02:54:28.124Z,68.24
2023-05-04T02:55:28.288Z,67.62
2023-05-04T02:56:28.490Z,68.13
2023-05-04T02:57:28.681Z,67.62
2023-05-04T02:58:28.840Z,68.65
2023-05-04T02:59:29.041Z,68.24
2023-05-04T03:00:29.195Z,67.93
2023-05-04T03:01:29.395Z,67.52
2023-05-04T03:02:29.566Z,68.13
2023-05-04T03:03:29.739Z,68.27
2023-05-04T03:04:29.934Z,68.78
2023-05-04T03:05:30.059Z,68.48
2023-05-04T03:06:30.255Z,68.16
2023-05-04T03:07:30.416Z,67.65
2023-05-04T03:08:30.564Z,67.86
2023-05-04T03:09:30.747Z,68.78
2023-05-04T03:10:30.941Z,69.09
2023-05-04T03:11:31.095Z,68.37
2023-05-04T03:12:31.303Z,68.78
2023-05-04T03:13:31.429Z,68.57
2023-05-04T03:14:31.620Z,68.48
2023-05-04T03:15:31.814Z,68.27
2023-05-04T03:16:32.034Z,68.48
2023-05-04T03:17:32.201Z,67.96
2023-05-04T03:18:53.346Z,68.16
2023-05-04T03:19:32.496Z,68.16
2023-05-04T03:20:32.690Z,68.16
2023-05-04T03:21:32.873Z,68.57
2023-05-04T03:22:33.058Z,68.16
2023-05-04T03:23:33.239Z,67.65
2023-05-04T03:24:33.434Z,69.29
2023-05-04T03:25:33.652Z,69.91
2023-05-04T03:26:33.792Z,69.60
2023-05-04T03:27:33.989Z,69.91
2023-05-04T03:28:34.163Z,70.63
2023-05-04T03:29:34.341Z,70.22
2023-05-04T03:30:34.537Z,70.53
2023-05-04T03:31:34.785Z,70.73
2023-05-04T03:32:34.869Z,70.73
2023-05-04T03:33:35.012Z,70.42
2023-05-04T03:34:35.243Z,71.04
2023-05-04T03:35:35.359Z,70.84
2023-05-04T03:36:35.529Z,70.84
2023-05-04T03:37:35.741Z,70.73
2023-05-04T03:38:35.908Z,70.63
2023-05-04T03:39:36.105Z,70.32
2023-05-04T03:40:36.255Z,70.22
2023-05-04T03:41:36.410Z,69.91
2023-05-04T03:42:36.602Z,69.81
2023-05-04T03:43:36.809Z,70.01
2023-05-04T03:44:36.952Z,70.08
2023-05-04T03:45:37.131Z,69.98
2023-05-04T03:46:37.343Z,69.47
2023-05-04T03:47:37.505Z,69.98
2023-05-04T03:48:37.630Z,69.57
2023-05-04T03:49:37.805Z,69.88
2023-05-04T03:50:37.985Z,69.98
2023-05-04T03:51:38.164Z,69.95
2023-05-04T03:52:38.326Z,69.74
2023-05-04T03:53:38.556Z,69.54
2023-05-04T03:54:38.677Z,69.54
2023-05-04T03:55:38.845Z,69.54
2023-05-04T03:56:38.986Z,69.02
2023-05-04T03:57:39.192Z,69.10
2023-05-04T03:58:39.380Z,69.10
2023-05-04T03:59:39.507Z,68.89
2023-05-04T04:00:39.671Z,68.68
2023-05-04T04:01:39.841Z,68.04
2023-05-04T04:02:40.126Z,67.83
2023-05-04T04:03:40.210Z,67.73
2023-05-04T04:04:40.410Z,67.43
2023-05-04T04:05:40.591Z,67.11
2023-05-04T04:06:42.616Z,66.91
2023-05-04T04:07:40.887Z,66.37
2023-05-04T04:08:41.040Z,66.16
2023-05-04T04:09:41.230Z,66.06
2023-05-04T04:10:41.411Z,66.27
2023-05-04T04:11:41.622Z,65.96
2023-05-04T04:12:41.844Z,65.45
2023-05-04T04:13:41.944Z,65.65
2023-05-04T04:14:42.139Z,65.62
2023-05-04T04:15:42.813Z,65.62
2023-05-04T04:16:42.610Z,65.21
2023-05-04T04:17:42.663Z,65.08
2023-05-04T04:18:42.796Z,64.87
2023-05-04T04:19:42.996Z,64.57
2023-05-04T04:20:43.181Z,64.03
2023-05-04T04:21:43.314Z,63.92
2023-05-04T04:22:43.482Z,63.41
2023-05-04T04:23:43.685Z,62.80
2023-05-04T04:24:43.836Z,62.90
2023-05-04T04:25:44.597Z,62.70
2023-05-04T04:26:44.205Z,62.70
2023-05-04T04:27:44.377Z,62.77
2023-05-04T04:28:44.569Z,62.66
2023-05-04T04:29:44.749Z,62.57
2023-05-04T04:30:44.927Z,62.66
2023-05-04T04:31:45.147Z,62.77
2023-05-04T04:32:45.339Z,62.57
2023-05-04T04:33:45.492Z,62.13
2023-05-04T04:34:45.642Z,61.92
2023-05-04T04:35:45.813Z,61.82
2023-05-04T04:36:45.990Z,61.92
2023-05-04T04:37:46.169Z,61.41
2023-05-04T04:38:46.394Z,61.58
2023-05-04T04:39:46.511Z,61.28
2023-05-04T04:40:46.677Z,60.85
2023-05-04T04:41:46.837Z,60.21
2023-05-04T04:42:47.018Z,59.59
2023-05-04T04:43:47.206Z,59.05
2023-05-04T04:44:47.406Z,59.36
2023-05-04T04:45:47.555Z,59.36
2023-05-04T04:46:47.757Z,59.36
2023-05-04T04:47:47.958Z,58.85
2023-05-04T04:48:48.119Z,58.75
2023-05-04T04:49:48.258Z,58.85
2023-05-04T04:50:48.431Z,58.64
2023-05-04T04:51:48.626Z,58.64
2023-05-04T04:52:48.812Z,58.34
2023-05-04T04:53:48.990Z,58.54
2023-05-04T04:54:49.136Z,58.41
2023-05-04T04:55:49.374Z,58.72
2023-05-04T04:56:49.517Z,58.21
2023-05-04T04:57:49.716Z,58.21
2023-05-04T04:58:49.862Z,58.28
2023-05-04T04:59:50.022Z,58.18
2023-05-04T05:00:50.235Z,57.57
2023-05-04T05:01:50.393Z,57.26
2023-05-04T05:02:50.644Z,57.54
2023-05-04T05:03:50.731Z,57.95
2023-05-04T05:04:50.930Z,57.54
2023-05-04T05:05:51.042Z,57.65
2023-05-04T05:06:51.190Z,57.72
2023-05-04T05:07:51.387Z,57.21
2023-05-04T05:08:51.545Z,57.42
2023-05-04T05:09:51.714Z,56.29
2023-05-04T05:10:51.867Z,57.01
2023-05-04T05:11:52.055Z,56.81
2023-05-04T05:12:52.325Z,57.31
2023-05-04T05:13:52.426Z,57.21
2023-05-04T05:14:52.612Z,57.69
2023-05-04T05:15:52.770Z,56.95
2023-05-04T05:16:52.985Z,55.91
2023-05-04T05:17:53.169Z,54.84
2023-05-04T05:18:53.296Z,53.91
2023-05-04T05:19:53.470Z,53.27
2023-05-04T05:20:53.633Z,52.13
2023-05-04T05:21:53.838Z,51.07
2023-05-04T05:22:54.023Z,51.14
2023-05-04T05:23:54.146Z,49.07
2023-05-04T05:24:54.324Z,48.54
2023-05-04T05:25:54.496Z,47.91
2023-05-04T05:26:54.666Z,47.99
2023-05-04T05:27:54.843Z,47.97
2023-05-04T05:28:55.041Z,47.64
2023-05-04T05:29:55.173Z,46.92
2023-05-04T05:30:55.393Z,46.99
2023-05-04T05:31:55.527Z,45.56
2023-05-04T05:32:55.697Z,45.62
2023-05-04T05:33:55.877Z,43.59
2023-05-04T05:34:56.058Z,42.74
2023-05-04T05:35:56.212Z,44.15
2023-05-04T05:36:56.434Z,43.80
2023-05-04T05:37:56.616Z,43.18
2023-05-04T05:38:56.728Z,42.16
2023-05-04T05:39:56.908Z,40.13
2023-05-04T05:40:57.080Z,40.01
2023-05-04T05:41:57.230Z,41.09
2023-05-04T05:42:57.386Z,40.25
2023-05-04T05:43:57.543Z,38.33
2023-05-04T05:44:57.733Z,37.92
2023-05-04T05:45:57.936Z,37.49
2023-05-04T05:46:58.087Z,38.49
2023-05-04T05:47:58.286Z,37.08
2023-05-04T05:48:58.429Z,36.36
2023-05-04T05:49:58.612Z,36.94
2023-05-04T05:50:58.801Z,37.02
2023-05-04T05:51:59.066Z,36.21
2023-05-04T05:52:59.108Z,36.09
2023-05-04T05:53:59.288Z,35.47
2023-05-04T05:55:01.666Z,35.06
2023-05-04T05:55:59.644Z,34.06
2023-05-04T05:56:59.818Z,33.55
2023-05-04T05:58:00.007Z,34.64
2023-05-04T05:59:00.211Z,33.44
2023-05-04T06:00:00.390Z,33.12
2023-05-04T06:01:00.602Z,31.83
2023-05-04T06:02:00.724Z,32.53
2023-05-04T06:03:00.939Z,32.71
2023-05-04T06:04:01.282Z,32.81
2023-05-04T06:05:01.376Z,33.69
2023-05-04T06:06:01.470Z,32.18
2023-05-04T06:07:01.631Z,31.58
2023-05-04T06:08:01.855Z,31.27
2023-05-04T06:09:01.974Z,30.46
2023-05-04T06:10:02.189Z,30.96
2023-05-04T06:11:02.295Z,30.65
2023-05-04T06:12:02.485Z,30.43
2023-05-04T06:13:02.699Z,30.04
2023-05-04T06:14:02.821Z,30.02
2023-05-04T06:15:02.973Z,28.92
2023-05-04T06:16:03.217Z,28.03
2023-05-04T06:17:03.342Z,28.32
2023-05-04T06:18:03.570Z,28.52
2023-05-04T06:19:03.673Z,27.83
2023-05-04T06:20:04.093Z,28.42
2023-05-04T06:21:03.981Z,28.42
2023-05-04T06:22:04.192Z,28.12
2023-05-04T06:23:04.365Z,28.81
2023-05-04T06:24:04.550Z,29.69
2023-05-04T06:25:07.121Z,27.62
2023-05-04T06:26:04.877Z,28.39
2023-05-04T06:27:05.042Z,27.32
2023-05-04T06:28:05.194Z,29.28
2023-05-04T06:29:05.373Z,28.09
2023-05-04T06:30:05.765Z,27.50
2023-05-04T06:31:05.701Z,27.50
2023-05-04T06:32:06.094Z,27.01
2023-05-04T06:33:06.082Z,27.11
2023-05-04T06:34:06.282Z,26.91
2023-05-04T06:35:06.429Z,27.59
2023-05-04T06:36:06.642Z,28.18
2023-05-04T06:37:06.802Z,27.08
2023-05-04T06:38:06.995Z,26.29
2023-05-04T06:39:07.157Z,26.78
2023-05-04T06:40:07.428Z,26.89
2023-05-04T06:41:07.481Z,25.98
2023-05-04T06:42:07.685Z,25.89
2023-05-04T06:43:07.848Z,25.29
2023-05-04T06:44:08.020Z,26.29
2023-05-04T06:45:08.174Z,26.48
2023-05-04T06:46:08.358Z,26.18
2023-05-04T06:47:08.524Z,26.26
2023-05-04T06:48:08.693Z,25.18
2023-05-04T06:49:08.869Z,25.18
2023-05-04T06:50:09.038Z,25.77
2023-05-04T06:51:09.245Z,26.46
2023-05-04T06:52:09.375Z,26.25
2023-05-04T06:53:09.530Z,25.55
2023-05-04T06:54:09.708Z,25.04
2023-05-04T06:55:09.895Z,24.45
2023-05-04T06:56:10.043Z,25.14
2023-05-04T06:57:10.203Z,26.31
2023-05-04T06:58:10.394Z,26.12
2023-05-04T06:59:10.568Z,25.51
2023-05-04T07:00:10.752Z,24.53
2023-05-04T07:01:10.903Z,26.20
2023-05-04T07:02:11.049Z,25.32
2023-05-04T07:03:11.278Z,25.50
2023-05-04T07:04:11.494Z,25.21
2023-05-04T07:05:11.594Z,24.32
2023-05-04T07:06:11.775Z,23.93
2023-05-04T07:07:11.928Z,24.02
2023-05-04T07:08:12.129Z,24.33
2023-05-04T07:09:12.303Z,25.02
2023-05-04T07:10:12.461Z,24.71
2023-05-04T07:11:12.659Z,23.63
2023-05-04T07:12:12.801Z,23.52
2023-05-04T07:13:13.117Z,24.02
2023-05-04T07:14:13.207Z,24.12
2023-05-04T07:15:13.377Z,24.32
2023-05-04T07:16:13.560Z,24.43
2023-05-04T07:17:13.689Z,24.43
2023-05-04T07:18:13.933Z,24.41
2023-05-04T07:19:14.032Z,25.31
2023-05-04T07:20:14.220Z,24.32
2023-05-04T07:21:26.916Z,25.01
2023-05-04T07:22:15.575Z,24.90
2023-05-04T07:23:14.752Z,24.41
2023-05-04T07:24:14.904Z,24.01
2023-05-04T07:25:15.101Z,24.00
2023-05-04T07:26:15.245Z,24.59
2023-05-04T07:27:15.406Z,24.00
2023-05-04T07:28:15.611Z,23.90
2023-05-04T07:29:15.769Z,24.49
2023-05-04T07:30:15.954Z,24.19
2023-05-04T07:31:16.108Z,23.79
2023-05-04T07:32:16.308Z,24.58
2023-05-04T07:33:16.467Z,23.49
2023-05-04T07:34:16.621Z,23.77
2023-05-04T07:35:16.833Z,24.65
2023-05-04T07:36:16.973Z,23.28
2023-05-04T07:37:17.185Z,22.88
2023-05-04T07:38:17.340Z,22.28
2023-05-04T07:39:17.490Z,22.37
2023-05-04T07:40:17.703Z,22.67
2023-05-04T07:41:17.846Z,23.55
2023-05-04T07:42:18.037Z,23.05
2023-05-04T07:43:18.172Z,23.74
2023-05-04T07:44:18.339Z,21.76
2023-05-04T07:45:18.527Z,22.94
2023-05-04T07:46:18.729Z,22.53
2023-05-04T07:47:18.890Z,20.67
2023-05-04T07:48:19.083Z,21.56
2023-05-04T07:49:19.253Z,21.45
2023-05-04T07:50:19.417Z,21.25
2023-05-04T07:51:19.700Z,19.87
2023-05-04T07:52:19.798Z,19.77
2023-05-04T07:53:19.960Z,20.07
2023-05-04T07:54:21.398Z,20.06
2023-05-04T07:55:20.288Z,20.64
2023-05-04T07:56:20.440Z,21.42
2023-05-04T07:57:20.663Z,20.63
2023-05-04T07:58:20.838Z,21.11
2023-05-04T07:59:21.065Z,20.61
2023-05-04T08:00:21.157Z,19.34
2023-05-04T08:01:21.349Z,20.80
2023-05-04T08:02:21.585Z,18.54
2023-05-04T08:03:21.771Z,18.64
2023-05-04T08:04:22.058Z,19.13
2023-05-04T08:05:22.149Z,19.32
2023-05-04T08:06:22.234Z,18.93
2023-05-04T08:07:22.489Z,19.60
2023-05-04T08:08:22.629Z,19.60
2023-05-04T08:09:22.793Z,18.52
2023-05-04T08:10:22.968Z,18.33
2023-05-04T08:11:23.118Z,19.11
2023-05-04T08:12:23.277Z,19.29
2023-05-04T08:13:23.455Z,18.90
2023-05-04T08:14:23.631Z,19.29
2023-05-04T08:15:23.801Z,19.19
2023-05-04T08:16:23.955Z,19.57
2023-05-04T08:17:24.175Z,19.37
2023-05-04T08:18:24.306Z,18.39
2023-05-04T08:19:24.502Z,17.22
2023-05-04T08:20:24.682Z,17.80
2023-05-04T08:21:24.863Z,18.60
2023-05-04T08:22:25.025Z,18.12
2023-05-04T08:23:25.280Z,18.12
2023-05-04T08:24:25.378Z,17.82
2023-05-04T08:25:25.579Z,17.82
2023-05-04T08:26:25.768Z,18.02
2023-05-04T08:27:25.939Z,18.50
2023-05-04T08:28:26.099Z,18.40
2023-05-04T08:29:26.327Z,17.03
2023-05-04T08:30:26.427Z,16.93
2023-05-04T08:31:26.650Z,15.96
2023-05-04T08:32:26.807Z,16.74
2023-05-04T08:33:26.989Z,16.55
2023-05-04T08:34:27.129Z,16.76
2023-05-04T08:35:27.326Z,18.42
2023-05-04T08:36:27.510Z,18.52
2023-05-04T08:37:27.705Z,18.32
2023-05-04T08:38:27.868Z,17.24
2023-05-04T08:39:28.025Z,17.34
2023-05-04T08:40:28.187Z,18.50
2023-05-04T08:41:28.395Z,16.93
2023-05-04T08:42:28.538Z,16.35
2023-05-04T08:43:28.743Z,16.46
2023-05-04T08:44:28.920Z,16.74
2023-05-04T08:45:29.138Z,16.94
2023-05-04T08:46:29.240Z,18.21
2023-05-04T08:47:29.502Z,18.12
2023-05-04T08:48:29.616Z,18.02
2023-05-04T08:49:29.788Z,17.91
2023-05-04T08:50:29.940Z,17.80
2023-05-04T08:51:30.097Z,17.12
2023-05-04T08:52:30.307Z,16.25
2023-05-04T08:53:30.467Z,16.06
2023-05-04T08:54:30.642Z,16.55
2023-05-04T08:55:30.812Z,16.17
2023-05-04T08:56:30.974Z,17.82
2023-05-04T08:57:31.122Z,17.53
2023-05-04T08:58:31.300Z,17.83
2023-05-04T08:59:31.546Z,17.15
2023-05-04T09:00:31.732Z,16.76
2023-05-04T09:01:31.921Z,17.06
2023-05-04T09:02:32.034Z,18.82
2023-05-04T09:03:32.265Z,17.07
2023-05-04T09:04:32.363Z,16.39
2023-05-04T09:05:32.540Z,17.47
2023-05-04T09:06:32.678Z,17.57
2023-05-04T09:07:32.877Z,17.09
2023-05-04T09:08:33.036Z,18.07
2023-05-04T09:09:33.244Z,17.76
2023-05-04T09:10:33.402Z,17.86
2023-05-04T09:11:33.564Z,16.80
2023-05-04T09:12:33.781Z,16.90
2023-05-04T09:13:33.911Z,18.07
2023-05-04T09:14:34.107Z,18.16
2023-05-04T09:15:34.277Z,17.19
2023-05-04T09:16:34.440Z,17.27
2023-05-04T09:17:36.342Z,18.04
2023-05-04T09:18:34.841Z,18.52
2023-05-04T09:19:35.010Z,16.86
2023-05-04T09:20:35.190Z,17.16
2023-05-04T09:21:35.357Z,16.77
2023-05-04T09:22:35.522Z,16.48
2023-05-04T09:23:35.739Z,16.86
2023-05-04T09:24:35.911Z,16.86
2023-05-04T09:25:36.054Z,17.05
2023-05-04T09:26:36.219Z,17.14
2023-05-04T09:27:36.407Z,17.33
2023-05-04T09:28:36.617Z,17.13
2023-05-04T09:29:36.753Z,16.26
2023-05-04T09:30:36.920Z,16.17
2023-05-04T09:31:37.162Z,17.34
2023-05-04T09:32:37.350Z,16.46
2023-05-04T09:33:37.505Z,16.53
2023-05-04T09:34:37.715Z,16.43
2023-05-04T09:35:37.860Z,15.74
2023-05-04T09:36:38.028Z,15.64
2023-05-04T09:37:38.195Z,15.34
2023-05-04T09:38:38.397Z,16.50
2023-05-04T09:39:38.545Z,16.98
2023-05-04T09:40:38.719Z,15.42
2023-05-04T09:41:38.892Z,16.09
2023-05-04T09:42:39.068Z,16.08
2023-05-04T09:43:39.273Z,15.41
2023-05-04T09:44:39.387Z,14.81
2023-05-04T09:45:39.584Z,14.43
2023-05-04T09:46:39.798Z,14.24
2023-05-04T09:47:40.003Z,14.73
2023-05-04T09:48:40.101Z,15.80
2023-05-04T09:49:40.348Z,14.84
2023-05-04T09:50:40.434Z,15.92
2023-05-04T09:51:40.620Z,15.15
2023-05-04T09:52:40.798Z,15.06
2023-05-04T09:53:40.954Z,16.13
2023-05-04T09:54:41.138Z,15.26
2023-05-04T09:55:41.326Z,16.05
2023-05-04T09:56:41.550Z,16.83
2023-05-04T09:57:41.714Z,15.96
2023-05-04T09:58:41.866Z,15.47
2023-05-04T09:59:42.065Z,16.16
2023-05-04T10:00:42.239Z,16.16
2023-05-04T10:01:44.793Z,16.07
2023-05-04T10:02:42.658Z,16.08
2023-05-04T10:03:42.779Z,16.48
2023-05-04T10:04:42.945Z,16.41
2023-05-04T10:05:43.241Z,17.50
2023-05-04T10:06:43.301Z,17.52
2023-05-04T10:07:43.451Z,18.70
2023-05-04T10:08:43.607Z,18.13
2023-05-04T10:09:43.808Z,18.62
2023-05-04T10:10:44.020Z,19.12
2023-05-04T10:11:44.153Z,18.44
2023-05-04T10:12:44.423Z,19.34
2023-05-04T10:13:44.532Z,20.33
2023-05-04T10:14:44.662Z,19.75
2023-05-04T10:15:44.882Z,20.84
2023-05-04T10:16:45.023Z,20.46
2023-05-04T10:17:45.285Z,19.19
2023-05-04T10:18:45.388Z,20.18
2023-05-04T10:19:45.565Z,21.08
2023-05-04T10:20:45.743Z,20.80
2023-05-04T10:21:45.908Z,21.11
2023-05-04T10:22:46.095Z,21.22
2023-05-04T10:23:46.271Z,21.23
2023-05-04T10:24:46.508Z,22.23
2023-05-04T10:25:46.688Z,23.32
2023-05-04T10:26:46.824Z,24.20
2023-05-04T10:27:47.028Z,23.03
2023-05-04T10:28:47.156Z,24.51
2023-05-04T10:29:47.353Z,25.02
2023-05-04T10:30:47.526Z,24.33
2023-05-04T10:31:47.723Z,23.94
2023-05-04T10:32:47.920Z,23.75
2023-05-04T10:33:48.074Z,23.16
2023-05-04T10:34:48.256Z,23.86
2023-05-04T10:35:48.429Z,24.26
2023-05-04T10:36:48.605Z,24.07
2023-05-04T10:37:48.792Z,23.67
2023-05-04T10:38:48.960Z,24.26
2023-05-04T10:39:49.152Z,22.89
2023-05-04T10:40:49.282Z,22.39
2023-05-04T10:41:49.449Z,23.39
2023-05-04T10:42:49.618Z,24.88
2023-05-04T10:43:49.790Z,24.49
2023-05-04T10:44:49.971Z,24.31
2023-05-04T10:45:50.172Z,24.21
2023-05-04T10:46:50.307Z,25.21
2023-05-04T10:47:50.520Z,24.82
2023-05-04T10:48:50.666Z,24.02
2023-05-04T10:49:50.819Z,23.54
2023-05-04T10:50:50.996Z,24.64
2023-05-04T10:51:51.196Z,25.34
2023-05-04T10:52:51.350Z,24.74
2023-05-04T10:53:51.512Z,25.24
2023-05-04T10:54:51.693Z,25.34
2023-05-04T10:55:51.926Z,26.23
2023-05-04T10:56:52.053Z,27.12
2023-05-04T10:57:52.231Z,25.93
2023-05-04T10:58:52.407Z,26.63
2023-05-04T10:59:52.583Z,26.54
2023-05-04T11:00:52.770Z,25.15
2023-05-04T11:01:52.947Z,26.94
2023-05-04T11:02:53.188Z,27.83
2023-05-04T11:03:53.376Z,27.34
2023-05-04T11:04:53.436Z,26.34
2023-05-04T11:05:53.638Z,26.54
2023-05-04T11:06:53.778Z,25.55
2023-05-04T11:07:53.937Z,26.15
2023-05-04T11:08:54.123Z,25.95
2023-05-04T11:09:54.316Z,25.55
2023-05-04T11:10:54.493Z,26.64
2023-05-04T11:11:54.759Z,26.25
2023-05-04T11:12:55.053Z,26.15
2023-05-04T11:13:55.028Z,25.95
2023-05-04T11:14:55.206Z,25.45
2023-05-04T11:15:55.421Z,27.24
2023-05-04T11:16:55.619Z,26.15
2023-05-04T11:17:55.721Z,27.73
2023-05-04T11:18:55.883Z,27.34
2023-05-04T11:19:56.055Z,27.12
2023-05-04T11:20:56.222Z,27.62
2023-05-04T11:21:56.375Z,27.23
2023-05-04T11:22:56.544Z,27.21
2023-05-04T11:23:56.718Z,26.32
2023-05-04T11:24:56.873Z,26.42
2023-05-04T11:25:57.079Z,25.92
2023-05-04T11:26:57.273Z,27.40
2023-05-04T11:27:57.380Z,24.91
2023-05-04T11:28:57.573Z,24.32
2023-05-04T11:29:57.753Z,24.11
2023-05-04T11:30:57.907Z,23.93
2023-05-04T11:31:58.169Z,24.32
2023-05-04T11:32:58.254Z,24.62
2023-05-04T11:33:58.414Z,25.71
2023-05-04T11:34:58.596Z,23.93
2023-05-04T11:35:58.743Z,23.82
2023-05-04T11:36:58.926Z,24.22
2023-05-04T11:37:59.148Z,23.43
2023-05-04T11:38:59.294Z,24.42
2023-05-04T11:39:59.505Z,24.91
2023-05-04T11:40:59.651Z,23.52
2023-05-04T11:41:59.791Z,24.72
2023-05-04T11:42:59.957Z,25.12
2023-05-04T11:44:00.143Z,25.81
2023-05-04T11:45:00.324Z,24.22
2023-05-04T11:46:00.521Z,24.62
2023-05-04T11:47:00.661Z,25.21
2023-05-04T11:48:00.886Z,26.20
2023-05-04T11:49:01.036Z,24.31
2023-05-04T11:50:01.208Z,24.31
2023-05-04T11:51:01.380Z,25.00
2023-05-04T11:52:01.687Z,25.70
2023-05-04T11:53:01.725Z,24.60
2023-05-04T11:54:01.948Z,26.09
2023-05-04T11:55:02.112Z,26.99
2023-05-04T11:56:02.275Z,24.71
2023-05-04T11:57:02.435Z,24.71
2023-05-04T11:58:02.610Z,25.42
2023-05-04T11:59:02.808Z,25.12
2023-05-04T12:00:02.970Z,25.31
2023-05-04T12:01:03.140Z,25.61
2023-05-04T12:02:03.332Z,26.21
2023-05-04T12:03:03.556Z,26.09
2023-05-04T12:04:03.717Z,26.39
2023-05-04T12:05:03.818Z,25.68
2023-05-04T12:06:04.019Z,25.49
2023-05-04T12:07:04.157Z,24.41
2023-05-04T12:08:04.343Z,24.51
2023-05-04T12:09:04.526Z,24.80
2023-05-04T12:10:04.675Z,25.40
2023-05-04T12:11:04.852Z,25.00
2023-05-04T12:12:05.023Z,27.09
2023-05-04T12:13:05.240Z,27.77
2023-05-04T12:14:05.362Z,24.60
2023-05-04T12:15:05.784Z,25.79
2023-05-04T12:16:05.795Z,27.08
2023-05-04T12:17:05.902Z,26.09
2023-05-04T12:18:06.083Z,27.88
2023-05-04T12:19:06.241Z,26.09
2023-05-04T12:20:06.391Z,26.50
2023-05-04T12:21:06.551Z,26.01
2023-05-04T12:22:06.745Z,26.50
2023-05-04T12:23:06.953Z,27.80
2023-05-04T12:24:07.089Z,26.92
2023-05-04T12:25:07.674Z,26.32
2023-05-04T12:26:07.437Z,24.73
2023-05-04T12:27:07.626Z,25.52
2023-05-04T12:28:07.802Z,26.31
2023-05-04T12:29:07.979Z,26.61
2023-05-04T12:30:08.167Z,25.31
2023-05-04T12:31:08.333Z,24.82
2023-05-04T12:32:08.523Z,23.93
2023-05-04T12:33:08.756Z,24.52
2023-05-04T12:34:08.877Z,24.22
2023-05-04T12:35:09.287Z,25.12
2023-05-04T12:36:09.218Z,24.52
2023-05-04T12:37:09.354Z,25.51
2023-05-04T12:38:09.540Z,27.59
2023-05-04T12:39:09.740Z,27.70
2023-05-04T12:40:21.168Z,25.21
2023-05-04T12:41:11.082Z,26.01
2023-05-04T12:42:10.243Z,25.12
2023-05-04T12:43:10.414Z,23.83
2023-05-04T12:44:10.602Z,24.53
2023-05-04T12:45:10.796Z,24.33
2023-05-04T12:46:10.979Z,25.62
2023-05-04T12:47:11.160Z,26.62
2023-05-04T12:48:11.322Z,26.81
2023-05-04T12:49:11.472Z,26.52
2023-05-04T12:50:11.689Z,26.42
2023-05-04T12:51:11.850Z,24.73
2023-05-04T12:52:11.999Z,24.33
2023-05-04T12:53:12.184Z,25.52
2023-05-04T12:54:12.348Z,25.43
2023-05-04T12:55:12.538Z,25.82